Time;durP1;ratioP1;P1;durP2;ratioP2;P2;SDS_P1;SDS_P2;PMS_P1;PMS_P2;Temp;Humidity;BMP_temperature;BMP_pressure;BME280_temperature;BME280_humidity;BME280_pressure;Samples;Min_cycle;Max_cycle;Signal;HPM_P1;HPM_P2
2021/12/19 00:02:02;;;;;;;27.83;15.20;;;4.50;99.90;;;;;;5017713;28;20230;-88
2021/12/19 00:04:37;;;;;;;21.52;13.55;;;4.50;99.90;;;;;;5016793;28;20194;-87
2021/12/19 00:09:47;;;;;;;19.70;11.93;;;4.60;99.90;;;;;;5034221;28;20352;-88
2021/12/19 00:12:13;;;;;;;18.83;11.07;;;4.60;99.90;;;;;;5035096;28;20657;-93
2021/12/19 00:14:39;;;;;;;16.63;11.50;;;4.60;99.90;;;;;;5018520;28;20658;-88
2021/12/19 00:17:05;;;;;;;24.00;13.07;;;4.60;99.90;;;;;;5016716;28;20461;-93
2021/12/19 00:19:31;;;;;;;18.20;12.07;;;4.60;99.90;;;;;;5016832;28;20274;-87
2021/12/19 00:21:56;;;;;;;20.70;13.10;;;4.60;99.90;;;;;;5016730;28;20431;-87
2021/12/19 00:24:24;;;;;;;19.20;11.53;;;4.60;99.90;;;;;;5034171;28;20367;-88
2021/12/19 00:26:50;;;;;;;23.15;14.77;;;4.70;99.90;;;;;;5028202;28;20195;-93
2021/12/19 00:29:15;;;;;;;23.80;14.47;;;4.70;99.90;;;;;;5029193;28;20221;-92
2021/12/19 00:31:43;;;;;;;20.73;13.33;;;4.70;99.90;;;;;;5016779;28;20795;-88
2021/12/19 00:34:08;;;;;;;18.55;11.65;;;4.70;99.90;;;;;;5034598;28;20551;-94
2021/12/19 00:36:34;;;;;;;20.20;12.50;;;4.60;99.90;;;;;;5033374;28;20274;-91
2021/12/19 00:39:00;;;;;;;21.00;12.60;;;4.60;99.90;;;;;;5058817;28;20277;-88
2021/12/19 00:41:26;;;;;;;19.27;11.30;;;4.60;99.90;;;;;;5038758;28;20205;-87
2021/12/19 00:43:56;;;;;;;21.53;11.90;;;4.60;99.90;;;;;;5016608;28;20636;-88
2021/12/19 00:46:24;;;;;;;20.50;13.25;;;4.60;99.90;;;;;;5017961;28;20422;-87
2021/12/19 00:48:54;;;;;;;15.85;11.25;;;4.60;99.90;;;;;;5011647;28;20250;-94
2021/12/19 00:51:24;;;;;;;25.33;13.05;;;4.60;99.90;;;;;;4996857;28;20207;-93
2021/12/19 00:53:52;;;;;;;29.20;13.88;;;4.60;99.90;;;;;;5014778;28;20592;-93
2021/12/19 00:56:18;;;;;;;20.80;12.13;;;4.60;99.90;;;;;;4996795;28;20201;-87
2021/12/19 00:58:44;;;;;;;21.98;11.93;;;4.60;99.90;;;;;;4996594;28;20373;-88
2021/12/19 01:01:13;;;;;;;19.70;12.07;;;4.60;99.90;;;;;;5014255;28;20206;-88
2021/12/19 01:03:43;;;;;;;20.35;11.95;;;4.60;99.90;;;;;;4996647;28;20666;-88
2021/12/19 01:06:10;;;;;;;23.40;12.50;;;4.60;99.90;;;;;;4996988;28;20289;-88
2021/12/19 01:08:35;;;;;;;19.20;13.27;;;4.50;99.90;;;;;;5014003;28;20222;-88
2021/12/19 01:11:02;;;;;;;17.33;12.57;;;4.50;99.90;;;;;;4996439;28;20190;-92
2021/12/19 01:13:28;;;;;;;19.20;13.00;;;4.40;99.90;;;;;;4996565;28;20307;-88
2021/12/19 01:15:55;;;;;;;22.93;12.50;;;4.40;99.90;;;;;;5019579;28;20206;-92
2021/12/19 01:18:21;;;;;;;30.27;12.50;;;4.40;99.90;;;;;;5017503;28;20188;-88
2021/12/19 01:20:47;;;;;;;19.65;13.30;;;4.40;99.90;;;;;;4999038;28;20222;-94
2021/12/19 01:23:13;;;;;;;20.37;11.33;;;4.40;99.90;;;;;;4996561;28;20184;-91
2021/12/19 01:25:39;;;;;;;21.13;12.45;;;4.40;99.90;;;;;;5013723;28;20407;-93
2021/12/19 01:28:05;;;;;;;20.75;13.57;;;4.40;99.90;;;;;;5000083;28;20224;-93
2021/12/19 01:30:31;;;;;;;23.13;13.13;;;4.40;99.90;;;;;;5000529;28;20191;-90
2021/12/19 01:32:57;;;;;;;29.33;13.82;;;4.40;99.90;;;;;;5018079;28;20206;-93
2021/12/19 01:35:24;;;;;;;20.03;11.97;;;4.40;99.90;;;;;;4999823;28;20203;-88
2021/12/19 01:37:50;;;;;;;32.55;16.75;;;4.40;99.90;;;;;;5000083;28;20562;-88
2021/12/19 01:40:18;;;;;;;24.85;14.55;;;4.40;99.90;;;;;;5017396;28;20195;-93
2021/12/19 01:42:47;;;;;;;22.65;13.40;;;4.40;99.90;;;;;;5000616;28;20311;-93
2021/12/19 01:45:24;;;;;;;25.27;12.43;;;4.40;99.90;;;;;;4999521;28;20259;-88
2021/12/19 01:47:50;;;;;;;19.30;12.45;;;4.40;99.90;;;;;;5000036;28;20183;-93
2021/12/19 01:50:15;;;;;;;19.60;11.90;;;4.30;99.90;;;;;;5034428;28;20317;-87
2021/12/19 01:52:42;;;;;;;24.67;12.67;;;4.30;99.90;;;;;;5020510;28;20635;-93
2021/12/19 01:55:10;;;;;;;20.80;12.52;;;4.30;99.90;;;;;;5037377;28;20595;-88
2021/12/19 01:57:36;;;;;;;17.48;12.45;;;4.30;99.90;;;;;;5019387;28;20206;-93
2021/12/19 02:00:06;;;;;;;19.85;11.98;;;4.30;99.90;;;;;;5019217;28;20207;-87
2021/12/19 02:02:31;;;;;;;23.83;15.23;;;4.30;99.90;;;;;;5037058;28;20635;-93
2021/12/19 02:04:57;;;;;;;23.20;13.87;;;4.20;99.90;;;;;;5019024;28;20201;-92
2021/12/19 02:07:25;;;;;;;25.90;12.87;;;4.20;99.90;;;;;;5019677;28;20190;-93
2021/12/19 02:09:50;;;;;;;21.50;12.85;;;4.20;99.90;;;;;;5037882;28;20221;-89
2021/12/19 02:12:16;;;;;;;23.93;13.70;;;4.10;99.90;;;;;;5039209;28;20542;-88
2021/12/19 02:14:43;;;;;;;20.97;12.00;;;4.10;99.90;;;;;;5036704;28;20175;-87
2021/12/19 02:17:09;;;;;;;23.25;13.32;;;4.10;99.90;;;;;;5020166;28;20179;-93
2021/12/19 02:19:36;;;;;;;26.03;14.23;;;4.10;99.90;;;;;;5020823;28;20179;-94
2021/12/19 02:22:02;;;;;;;21.58;13.93;;;4.10;99.90;;;;;;5038716;28;20174;-93
2021/12/19 02:24:28;;;;;;;26.15;13.05;;;4.10;99.90;;;;;;5019709;28;20179;-93
2021/12/19 02:26:54;;;;;;;24.90;14.33;;;4.10;99.90;;;;;;5028062;28;20202;-88
2021/12/19 02:29:19;;;;;;;31.02;16.17;;;4.00;99.90;;;;;;5035097;28;20221;-91
2021/12/19 02:31:45;;;;;;;28.17;15.33;;;4.00;99.90;;;;;;5040306;28;20229;-93
2021/12/19 02:34:19;;;;;;;31.83;15.87;;;4.00;99.90;;;;;;5056778;28;20167;-88
2021/12/19 02:50:13;;;;;;;24.30;13.75;;;4.00;99.90;;;;;;5036185;28;20430;-93
2021/12/19 02:52:39;;;;;;;21.73;13.52;;;4.00;99.90;;;;;;5036993;28;20179;-92
2021/12/19 02:55:06;;;;;;;23.90;13.55;;;4.00;99.90;;;;;;5018859;28;20214;-92
2021/12/19 02:57:32;;;;;;;24.83;14.35;;;4.00;99.90;;;;;;5018526;28;20183;-93
2021/12/19 02:59:57;;;;;;;23.20;13.50;;;4.00;99.90;;;;;;5017982;28;20701;-94
2021/12/19 03:02:23;;;;;;;22.63;14.30;;;4.00;99.90;;;;;;5051491;28;20394;-93
2021/12/19 03:04:57;;;;;;;26.87;14.97;;;4.00;99.90;;;;;;5017661;28;20241;-87
2021/12/19 03:07:24;;;;;;;22.25;13.80;;;4.00;99.90;;;;;;5018108;28;20646;-87
2021/12/19 03:10:26;;;;;;;22.02;13.15;;;4.10;99.90;;;;;;5019266;28;20289;-87
2021/12/19 03:18:09;;;;;;;18.08;11.50;;;4.10;99.90;;;;;;5035598;28;20177;-88
2021/12/19 03:20:37;;;;;;;18.58;12.95;;;4.10;99.90;;;;;;5035595;28;20560;-87
2021/12/19 03:23:04;;;;;;;23.38;13.35;;;4.10;99.90;;;;;;5051570;28;20198;-93
2021/12/19 03:25:32;;;;;;;39.13;21.17;;;4.10;99.90;;;;;;5017582;28;20209;-88
2021/12/19 03:27:59;;;;;;;30.85;19.45;;;4.10;99.90;;;;;;5017642;28;20183;-88
2021/12/19 03:30:25;;;;;;;26.40;15.68;;;4.20;99.90;;;;;;5017619;28;20272;-88
2021/12/19 03:32:51;;;;;;;24.15;13.90;;;4.20;99.90;;;;;;5017567;28;20182;-88
2021/12/19 03:35:17;;;;;;;23.17;14.13;;;4.20;99.90;;;;;;5017774;28;20256;-87
2021/12/19 03:37:43;;;;;;;27.60;17.23;;;4.30;99.90;;;;;;5031879;28;20241;-88
2021/12/19 03:40:13;;;;;;;27.17;17.20;;;4.30;99.90;;;;;;5038835;28;20179;-90
2021/12/19 03:42:44;;;;;;;27.52;17.20;;;4.30;99.90;;;;;;5063446;28;20550;-92
2021/12/19 03:45:12;;;;;;;23.45;14.27;;;4.30;99.90;;;;;;5050792;28;20264;-87
2021/12/19 03:47:38;;;;;;;23.08;13.27;;;4.40;99.90;;;;;;5050950;28;20181;-93
2021/12/19 03:50:06;;;;;;;26.65;14.52;;;4.40;99.90;;;;;;5035640;28;20238;-87
2021/12/19 03:52:32;;;;;;;18.10;13.40;;;4.40;99.90;;;;;;5017590;28;20210;-93
2021/12/19 03:54:58;;;;;;;23.30;13.97;;;4.50;99.90;;;;;;5016946;28;20205;-93
2021/12/19 03:57:24;;;;;;;21.40;13.60;;;4.50;99.90;;;;;;5017224;28;20278;-88
2021/12/19 03:59:50;;;;;;;21.03;13.00;;;4.50;99.90;;;;;;5034638;28;20437;-93
2021/12/19 04:02:29;;;;;;;22.00;13.83;;;4.50;99.90;;;;;;5050030;28;20516;-88
2021/12/19 04:04:58;;;;;;;22.17;12.85;;;4.50;99.90;;;;;;5017336;28;20244;-88
2021/12/19 04:07:25;;;;;;;20.20;12.30;;;4.60;99.90;;;;;;5049650;28;20191;-92
2021/12/19 04:09:51;;;;;;;19.58;12.60;;;4.50;99.90;;;;;;5016859;28;20309;-88
2021/12/19 04:12:18;;;;;;;22.10;12.67;;;4.50;99.90;;;;;;5016947;28;20652;-92
2021/12/19 04:14:44;;;;;;;18.20;13.07;;;4.50;99.90;;;;;;5039164;28;20178;-92
2021/12/19 04:17:10;;;;;;;19.92;12.93;;;4.50;99.90;;;;;;5071451;28;20179;-89
2021/12/19 04:19:36;;;;;;;18.63;12.50;;;4.50;99.90;;;;;;5028975;28;20214;-87
2021/12/19 04:22:02;;;;;;;19.97;12.53;;;4.50;99.90;;;;;;5050226;28;20643;-93
2021/12/19 04:24:27;;;;;;;19.02;12.80;;;4.50;99.90;;;;;;5016849;28;20190;-88
2021/12/19 04:26:59;;;;;;;18.90;11.87;;;4.50;99.90;;;;;;5016573;28;20643;-87
2021/12/19 04:29:25;;;;;;;24.00;12.55;;;4.50;99.90;;;;;;5017304;28;20530;-87
2021/12/19 04:31:53;;;;;;;21.73;13.38;;;4.50;99.90;;;;;;5016838;28;20647;-92
2021/12/19 04:34:19;;;;;;;22.27;13.85;;;4.40;99.90;;;;;;5016433;28;20185;-93
2021/12/19 04:36:49;;;;;;;21.63;12.98;;;4.40;99.90;;;;;;5016850;28;20209;-93
2021/12/19 05:01:12;;;;;;;23.25;13.68;;;4.40;99.90;;;;;;5055893;28;20189;-89
2021/12/19 05:06:47;;;;;;;21.70;13.48;;;4.40;99.90;;;;;;5038150;28;20612;-87
2021/12/19 05:14:40;;;;;;;21.00;12.65;;;4.50;99.90;;;;;;5037770;28;20202;-88
2021/12/19 05:17:10;;;;;;;25.35;15.13;;;4.50;99.90;;;;;;5053297;28;20181;-88
2021/12/19 05:20:15;;;;;;;20.88;13.13;;;4.50;99.90;;;;;;5037759;28;20209;-94
2021/12/19 05:22:29;;;;;;;23.58;14.13;;;4.50;99.90;;;;;;5037592;28;20200;-93
2021/12/19 05:25:08;;;;;;;21.80;14.15;;;4.60;99.90;;;;;;5019968;28;20194;-87
2021/12/19 05:27:34;;;;;;;21.48;12.85;;;4.60;99.90;;;;;;5020260;28;20214;-88
2021/12/19 05:30:00;;;;;;;24.88;13.25;;;4.60;99.90;;;;;;5019598;28;20222;-88
2021/12/19 05:32:26;;;;;;;23.17;15.60;;;4.60;99.90;;;;;;5037399;28;20185;-88
2021/12/19 05:34:51;;;;;;;21.37;14.10;;;4.60;99.90;;;;;;5019890;28;20227;-93
2021/12/19 05:45:30;;;;;;;22.02;14.85;;;4.60;99.90;;;;;;5044063;28;20193;-87
2021/12/19 05:47:55;;;;;;;27.23;15.40;;;4.60;99.90;;;;;;5039784;28;20187;-89
2021/12/19 05:50:23;;;;;;;24.53;15.43;;;4.60;99.90;;;;;;5059029;28;20222;-90
2021/12/19 05:52:49;;;;;;;26.27;16.27;;;4.60;99.90;;;;;;5032533;28;20313;-92
2021/12/19 05:55:16;;;;;;;25.27;15.35;;;4.60;99.90;;;;;;5031474;28;20200;-87
2021/12/19 05:57:43;;;;;;;22.05;14.50;;;4.50;99.90;;;;;;5052692;28;20233;-91
2021/12/19 06:00:12;;;;;;;23.38;13.00;;;4.50;99.90;;;;;;5036823;28;20655;-86
2021/12/19 06:02:40;;;;;;;21.67;14.65;;;4.50;99.90;;;;;;5019062;28;20190;-86
2021/12/19 06:05:07;;;;;;;19.30;12.80;;;4.60;99.90;;;;;;5019056;28;20201;-87
2021/12/19 06:07:34;;;;;;;20.00;13.10;;;4.60;99.90;;;;;;5037060;28;20183;-86
2021/12/19 06:09:59;;;;;;;21.27;14.20;;;4.60;99.90;;;;;;5018747;28;20218;-92
2021/12/19 06:12:25;;;;;;;21.73;14.43;;;4.60;99.90;;;;;;5018239;28;20671;-86
2021/12/19 06:14:52;;;;;;;21.98;14.05;;;4.60;99.90;;;;;;5052284;28;20229;-93
2021/12/19 06:17:18;;;;;;;24.83;17.20;;;4.60;99.90;;;;;;5020552;28;20232;-87
2021/12/19 06:19:44;;;;;;;19.57;13.80;;;4.70;99.90;;;;;;5018818;28;20715;-92
2021/12/19 06:22:09;;;;;;;23.13;16.20;;;4.70;99.90;;;;;;5019346;28;20193;-92
2021/12/19 06:24:36;;;;;;;20.43;13.70;;;4.70;99.90;;;;;;5037124;28;20167;-92
2021/12/19 06:27:02;;;;;;;22.85;14.13;;;4.70;99.90;;;;;;5019959;28;20189;-87
2021/12/19 06:29:30;;;;;;;18.00;12.45;;;4.70;99.90;;;;;;5029373;28;20264;-92
2021/12/19 06:31:56;;;;;;;27.80;17.23;;;4.80;99.90;;;;;;5053001;28;20186;-87
2021/12/19 06:34:22;;;;;;;21.30;14.10;;;4.80;99.90;;;;;;5018520;28;20686;-91
2021/12/19 06:36:49;;;;;;;22.17;13.57;;;4.80;99.90;;;;;;5018484;28;20222;-87
2021/12/19 06:39:14;;;;;;;21.73;13.82;;;4.80;99.90;;;;;;5035993;28;20962;-87
2021/12/19 06:41:40;;;;;;;25.87;15.17;;;4.80;99.90;;;;;;5018853;28;20238;-86
2021/12/19 06:44:06;;;;;;;23.10;15.10;;;4.90;99.90;;;;;;5018890;28;20232;-92
2021/12/19 06:46:32;;;;;;;22.23;13.23;;;4.90;99.90;;;;;;5018297;28;20206;-92
2021/12/19 06:48:58;;;;;;;26.30;15.93;;;4.90;99.90;;;;;;5011623;28;20294;-86
2021/12/19 06:51:24;;;;;;;23.30;15.60;;;4.90;99.90;;;;;;5015856;28;20664;-91
2021/12/19 06:53:50;;;;;;;22.40;13.55;;;4.90;99.90;;;;;;4994935;28;20408;-87
2021/12/19 06:56:16;;;;;;;18.80;12.93;;;5.00;99.90;;;;;;4978625;28;20744;-92
2021/12/19 06:58:42;;;;;;;19.65;12.38;;;5.00;99.90;;;;;;4996481;28;20882;-86
2021/12/19 07:01:08;;;;;;;23.00;12.45;;;5.00;99.90;;;;;;4996038;28;20218;-87
2021/12/19 07:03:34;;;;;;;24.73;14.40;;;5.00;99.90;;;;;;4978917;28;20262;-88
2021/12/19 07:06:01;;;;;;;23.30;14.63;;;5.10;99.90;;;;;;4978014;28;20456;-86
2021/12/19 07:08:27;;;;;;;19.85;12.38;;;5.10;99.90;;;;;;4978450;28;20217;-86
2021/12/19 07:10:53;;;;;;;25.87;14.10;;;5.10;99.90;;;;;;4978699;28;20203;-86
2021/12/19 07:13:22;;;;;;;22.45;13.77;;;5.20;99.90;;;;;;4978680;28;20391;-91
2021/12/19 07:15:53;;;;;;;20.92;13.48;;;5.20;99.90;;;;;;4979011;28;20624;-92
2021/12/19 07:18:19;;;;;;;21.35;13.15;;;5.20;99.90;;;;;;4996155;28;20176;-92
2021/12/19 07:20:45;;;;;;;20.58;13.60;;;5.30;99.90;;;;;;4979475;28;20211;-87
2021/12/19 07:23:18;;;;;;;22.83;15.27;;;5.30;99.90;;;;;;4983322;28;20184;-91
2021/12/19 07:25:44;;;;;;;28.48;15.98;;;5.40;99.90;;;;;;4992473;28;20416;-91
2021/12/19 07:28:11;;;;;;;25.00;16.13;;;5.40;99.90;;;;;;5011844;28;20207;-90
2021/12/19 07:30:37;;;;;;;22.75;14.52;;;5.50;99.90;;;;;;4988221;28;20428;-88
2021/12/19 07:33:08;;;;;;;24.05;15.68;;;5.50;99.90;;;;;;5002253;28;20176;-92
2021/12/19 07:35:37;;;;;;;28.75;18.38;;;5.50;99.90;;;;;;4994140;28;20196;-88
2021/12/19 07:38:05;;;;;;;25.08;14.38;;;5.60;99.90;;;;;;4982582;28;20553;-93
2021/12/19 07:40:36;;;;;;;26.40;15.57;;;5.60;99.90;;;;;;4997983;28;20688;-87
2021/12/19 07:43:11;;;;;;;21.80;14.68;;;5.60;99.90;;;;;;4978968;28;20188;-92
2021/12/19 07:45:37;;;;;;;28.20;16.00;;;5.60;99.90;;;;;;4995463;28;20246;-86
2021/12/19 07:48:04;;;;;;;22.83;15.43;;;5.70;99.90;;;;;;4978060;28;20176;-88
2021/12/19 07:50:31;;;;;;;26.23;15.60;;;5.70;99.90;;;;;;4997133;28;20321;-92
2021/12/19 07:52:57;;;;;;;23.90;15.50;;;5.80;99.90;;;;;;5015386;28;20662;-87
2021/12/19 07:55:24;;;;;;;28.50;15.85;;;5.80;99.90;;;;;;5013922;28;20195;-92
2021/12/19 07:57:50;;;;;;;26.23;17.40;;;5.80;99.90;;;;;;5013805;28;20234;-87
2021/12/19 08:00:16;;;;;;;21.80;14.67;;;5.90;99.90;;;;;;5013901;28;20198;-87
2021/12/19 08:02:45;;;;;;;26.60;15.63;;;5.90;99.90;;;;;;5014899;28;20424;-91
2021/12/19 08:05:12;;;;;;;25.73;16.90;;;6.00;99.90;;;;;;5015295;28;20235;-91
2021/12/19 08:07:43;;;;;;;20.85;14.20;;;6.00;99.90;;;;;;5014562;28;20269;-86
2021/12/19 08:12:36;;;;;;;25.50;14.20;;;6.10;99.90;;;;;;5016048;28;20179;-87
2021/12/19 08:15:04;;;;;;;24.85;14.20;;;6.10;99.90;;;;;;5015110;28;20195;-92
2021/12/19 08:17:31;;;;;;;22.48;13.52;;;6.10;99.90;;;;;;5014718;28;20187;-92
2021/12/19 08:19:58;;;;;;;21.15;14.88;;;6.20;99.90;;;;;;5013796;28;20210;-87
2021/12/19 08:22:23;;;;;;;19.73;14.23;;;6.20;99.90;;;;;;5014958;28;20183;-92
2021/12/19 08:24:50;;;;;;;21.00;13.00;;;6.20;99.90;;;;;;5013535;28;20195;-92
2021/12/19 08:27:16;;;;;;;21.77;14.63;;;6.30;99.90;;;;;;5013658;28;20303;-92
2021/12/19 08:29:42;;;;;;;21.63;15.88;;;6.30;99.90;;;;;;5028604;28;20199;-87
2021/12/19 08:32:08;;;;;;;20.27;13.40;;;6.30;99.90;;;;;;5020982;28;20570;-92
2021/12/19 08:34:34;;;;;;;24.70;17.13;;;6.30;99.90;;;;;;5015252;28;20865;-87
2021/12/19 08:37:02;;;;;;;27.30;20.93;;;6.30;99.90;;;;;;5019868;28;20391;-93
2021/12/19 08:39:28;;;;;;;34.88;25.75;;;6.30;99.90;;;;;;5019738;28;20179;-93
2021/12/19 08:41:55;;;;;;;23.42;16.65;;;6.30;99.90;;;;;;5021743;28;20620;-87
2021/12/19 08:44:21;;;;;;;24.92;18.67;;;6.40;99.90;;;;;;5021594;28;20635;-87
2021/12/19 08:46:46;;;;;;;20.67;15.52;;;6.40;99.90;;;;;;5019528;28;20202;-92
2021/12/19 08:49:13;;;;;;;34.47;25.07;;;6.40;99.90;;;;;;5019555;28;20234;-87
2021/12/19 08:51:39;;;;;;;21.75;15.60;;;6.40;99.90;;;;;;5019907;28;20776;-86
2021/12/19 08:54:06;;;;;;;22.42;16.48;;;6.40;99.90;;;;;;5020093;28;20175;-88
2021/12/19 08:56:32;;;;;;;25.98;20.80;;;6.40;99.90;;;;;;5020754;28;20265;-92
2021/12/19 08:58:59;;;;;;;20.17;14.40;;;6.40;99.90;;;;;;5022552;28;20179;-87
2021/12/19 09:01:25;;;;;;;21.13;14.65;;;6.40;99.90;;;;;;5020454;28;20782;-86
2021/12/19 09:03:51;;;;;;;20.52;12.65;;;6.50;99.90;;;;;;5020272;28;20190;-91
2021/12/19 09:06:16;;;;;;;17.67;13.60;;;6.50;99.90;;;;;;5020870;28;20673;-87
2021/12/19 09:08:42;;;;;;;18.93;14.70;;;6.50;99.90;;;;;;5020372;28;20214;-87
2021/12/19 09:11:08;;;;;;;17.27;13.00;;;6.50;99.90;;;;;;5021733;28;20438;-92
2021/12/19 09:13:34;;;;;;;18.77;11.73;;;6.50;99.90;;;;;;5019606;28;20171;-90
2021/12/19 09:16:00;;;;;;;17.20;12.50;;;6.50;99.90;;;;;;5028562;28;20203;-87
2021/12/19 09:18:28;;;;;;;19.75;12.55;;;6.50;99.90;;;;;;5031224;28;20262;-87
2021/12/19 09:20:55;;;;;;;41.45;29.33;;;6.60;99.90;;;;;;5019631;28;20206;-87
2021/12/19 09:23:22;;;;;;;26.25;16.02;;;6.60;99.90;;;;;;5019481;28;20842;-90
2021/12/19 09:25:48;;;;;;;20.65;13.82;;;6.60;99.90;;;;;;5019665;28;20575;-87
2021/12/19 09:28:14;;;;;;;23.80;16.70;;;6.60;99.90;;;;;;5017439;28;20210;-92
2021/12/19 09:30:42;;;;;;;19.50;14.30;;;6.70;99.90;;;;;;5020388;28;20431;-92
2021/12/19 09:33:08;;;;;;;20.17;12.50;;;6.70;99.90;;;;;;5019957;28;20175;-91
2021/12/19 09:35:34;;;;;;;18.55;13.55;;;6.70;99.90;;;;;;5020873;28;20205;-92
2021/12/19 09:38:01;;;;;;;15.10;11.02;;;6.70;99.90;;;;;;5022349;28;20179;-87
2021/12/19 09:40:33;;;;;;;14.68;11.20;;;6.70;99.90;;;;;;5019651;28;20198;-91
2021/12/19 09:43:03;;;;;;;16.35;11.40;;;6.80;99.90;;;;;;5018199;28;20250;-92
2021/12/19 09:45:31;;;;;;;20.73;11.52;;;6.80;99.90;;;;;;5016780;28;20198;-86
2021/12/19 09:47:57;;;;;;;16.48;11.52;;;6.80;99.90;;;;;;5014169;28;20568;-87
2021/12/19 09:50:24;;;;;;;18.50;10.70;;;6.80;99.90;;;;;;5014420;28;20238;-86
2021/12/19 09:52:50;;;;;;;15.90;12.00;;;6.80;99.90;;;;;;5015585;28;20403;-92
2021/12/19 09:55:21;;;;;;;18.75;12.13;;;6.80;99.90;;;;;;4997877;28;20221;-86
2021/12/19 09:57:47;;;;;;;17.40;12.40;;;6.90;99.90;;;;;;5019743;28;20197;-92
2021/12/19 10:00:13;;;;;;;19.95;12.63;;;6.90;99.90;;;;;;5017817;28;20250;-92
2021/12/19 10:02:39;;;;;;;17.88;12.50;;;6.90;99.90;;;;;;5018813;28;20188;-86
2021/12/19 10:05:19;;;;;;;21.50;12.37;;;6.90;99.90;;;;;;5037283;28;20214;-92
2021/12/19 10:07:53;;;;;;;17.98;13.05;;;6.90;99.90;;;;;;5018836;28;20203;-87
2021/12/19 10:10:27;;;;;;;19.08;14.00;;;7.00;99.90;;;;;;5015798;28;20273;-87
2021/12/19 10:12:58;;;;;;;18.10;11.90;;;7.00;99.90;;;;;;5017029;28;20190;-92
2021/12/19 10:15:31;;;;;;;16.10;9.82;;;7.00;99.90;;;;;;4999653;28;20282;-87
2021/12/19 10:18:16;;;;;;;15.60;11.63;;;7.00;99.90;;;;;;4999394;28;20253;-87
2021/12/19 10:20:47;;;;;;;15.32;10.55;;;7.00;99.90;;;;;;5016603;28;20307;-92
2021/12/19 10:23:28;;;;;;;16.63;10.38;;;7.00;99.90;;;;;;5016202;28;20176;-87
2021/12/19 10:26:15;;;;;;;14.50;10.90;;;7.00;99.90;;;;;;4999040;28;20195;-92
2021/12/19 10:28:55;;;;;;;18.95;11.25;;;7.10;99.90;;;;;;4999419;28;20210;-87
2021/12/19 10:31:25;;;;;;;18.25;11.13;;;7.00;99.90;;;;;;5017148;28;20222;-87
2021/12/19 10:33:51;;;;;;;13.80;9.80;;;7.10;99.90;;;;;;5015647;28;20636;-87
2021/12/19 10:36:19;;;;;;;15.70;10.15;;;7.10;99.90;;;;;;5016385;28;20199;-87
2021/12/19 10:38:48;;;;;;;14.18;10.98;;;7.10;99.90;;;;;;4999061;28;20186;-87
2021/12/19 10:41:15;;;;;;;16.90;11.48;;;7.10;99.90;;;;;;5015169;28;20294;-92
2021/12/19 10:43:59;;;;;;;15.30;11.27;;;7.10;99.90;;;;;;5016003;28;20648;-92
2021/12/19 10:46:38;;;;;;;14.27;10.02;;;7.10;99.90;;;;;;5015407;28;20235;-87
2021/12/19 10:49:06;;;;;;;14.70;9.88;;;7.20;99.90;;;;;;5016219;28;20238;-87
2021/12/19 10:51:38;;;;;;;13.02;9.40;;;7.20;99.90;;;;;;4998532;28;20207;-87
2021/12/19 10:54:07;;;;;;;13.85;9.88;;;7.20;99.90;;;;;;4998812;28;20175;-92
2021/12/19 10:56:36;;;;;;;14.50;10.75;;;7.20;99.90;;;;;;4998968;28;20310;-91
2021/12/19 10:59:05;;;;;;;13.25;9.65;;;7.20;99.90;;;;;;4998160;28;20269;-87
2021/12/19 11:01:44;;;;;;;14.13;9.75;;;7.20;99.90;;;;;;4998493;28;20206;-87
2021/12/19 11:04:22;;;;;;;16.98;10.85;;;7.20;99.90;;;;;;4998771;28;20171;-91
2021/12/19 11:06:50;;;;;;;12.80;9.50;;;7.20;99.90;;;;;;5016280;28;20207;-88
2021/12/19 11:09:21;;;;;;;13.02;8.90;;;7.20;99.90;;;;;;5023666;28;20218;-88
2021/12/19 11:11:52;;;;;;;13.57;9.10;;;7.20;99.90;;;;;;5004395;28;20203;-87
2021/12/19 11:14:24;;;;;;;16.02;10.13;;;7.20;99.90;;;;;;5030797;28;20175;-93
2021/12/19 11:16:53;;;;;;;13.40;9.85;;;7.20;99.90;;;;;;5022554;28;20290;-89
2021/12/19 11:19:19;;;;;;;14.00;10.57;;;7.20;99.90;;;;;;5033481;28;20234;-91
2021/12/19 11:21:45;;;;;;;12.93;9.05;;;7.30;99.90;;;;;;5023216;28;20675;-93
2021/12/19 11:24:16;;;;;;;16.53;12.13;;;7.30;99.90;;;;;;4996893;28;20194;-88
2021/12/19 11:26:44;;;;;;;16.33;11.80;;;7.30;99.90;;;;;;5012504;28;20203;-87
2021/12/19 11:29:11;;;;;;;13.65;10.38;;;7.30;99.90;;;;;;5012805;28;20256;-87
2021/12/19 11:31:39;;;;;;;12.45;10.00;;;7.30;99.90;;;;;;5013203;28;20241;-92
2021/12/19 11:34:16;;;;;;;16.00;10.57;;;7.30;99.90;;;;;;5014915;28;20527;-91
2021/12/19 11:36:46;;;;;;;14.55;11.65;;;7.30;99.90;;;;;;5013605;28;20195;-86
2021/12/19 11:39:14;;;;;;;13.40;10.02;;;7.30;99.90;;;;;;5012621;28;20593;-86
2021/12/19 11:42:08;;;;;;;16.83;11.38;;;7.30;99.90;;;;;;4997215;28;20206;-87
2021/12/19 11:45:04;;;;;;;17.92;11.50;;;7.30;99.90;;;;;;5017100;28;20202;-86
2021/12/19 11:47:47;;;;;;;23.58;12.98;;;7.40;99.90;;;;;;5032583;28;20721;-91
2021/12/19 11:50:19;;;;;;;13.60;9.85;;;7.40;99.90;;;;;;5016668;28;20238;-92
2021/12/19 11:52:44;;;;;;;16.80;12.95;;;7.40;99.90;;;;;;5004707;28;20247;-87
2021/12/19 11:55:13;;;;;;;16.47;12.30;;;7.40;99.90;;;;;;5013601;28;20226;-86
2021/12/19 11:57:43;;;;;;;12.25;9.90;;;7.40;99.90;;;;;;5021108;28;20183;-92
2021/12/19 12:00:27;;;;;;;13.90;10.32;;;7.40;99.90;;;;;;5014994;28;20330;-93
2021/12/19 12:03:11;;;;;;;14.82;11.15;;;7.40;99.90;;;;;;4997622;28;20194;-90
2021/12/19 12:05:38;;;;;;;13.20;10.43;;;7.50;99.90;;;;;;5014048;28;20261;-91
2021/12/19 12:08:07;;;;;;;13.90;9.27;;;7.50;99.90;;;;;;5013623;28;20186;-87
2021/12/19 12:13:20;;;;;;;17.65;12.40;;;7.50;99.90;;;;;;5015149;28;20243;-91
2021/12/19 12:15:46;;;;;;;14.73;10.70;;;7.60;99.90;;;;;;5014734;28;20193;-92
2021/12/19 12:18:32;;;;;;;22.20;15.27;;;7.60;99.90;;;;;;5014587;28;20178;-86
2021/12/19 12:21:23;;;;;;;25.00;15.25;;;7.60;99.90;;;;;;5013497;28;20207;-92
2021/12/19 12:24:02;;;;;;;15.07;11.88;;;7.60;99.90;;;;;;5013606;28;20171;-86
2021/12/19 12:26:37;;;;;;;14.38;12.00;;;7.70;99.90;;;;;;5013670;28;20253;-87
2021/12/19 12:29:03;;;;;;;18.10;13.98;;;7.70;99.90;;;;;;5032741;28;20182;-87
2021/12/19 12:31:29;;;;;;;28.63;20.63;;;7.70;99.90;;;;;;5032690;28;20186;-87
2021/12/19 12:33:55;;;;;;;17.23;14.63;;;7.70;99.90;;;;;;5031656;28;20282;-87
2021/12/19 12:36:22;;;;;;;12.27;9.48;;;7.70;99.90;;;;;;5032276;28;20238;-87
2021/12/19 12:38:51;;;;;;;13.98;9.70;;;7.70;99.90;;;;;;5018909;28;20187;-87
2021/12/19 12:41:40;;;;;;;14.70;9.32;;;7.70;99.90;;;;;;4996714;28;20207;-92
2021/12/19 12:44:09;;;;;;;12.20;9.27;;;7.70;99.90;;;;;;4997206;28;20175;-87
2021/12/19 12:46:34;;;;;;;13.32;9.60;;;7.70;99.90;;;;;;5015518;28;20206;-92
2021/12/19 12:49:04;;;;;;;9.83;8.63;;;7.70;99.90;;;;;;5049243;28;20238;-86
2021/12/19 12:51:32;;;;;;;16.33;11.10;;;7.70;99.90;;;;;;5049535;28;20497;-92
2021/12/19 12:54:04;;;;;;;14.63;9.18;;;7.70;99.90;;;;;;5048992;28;20213;-92
2021/12/19 12:56:36;;;;;;;12.32;9.18;;;7.70;99.90;;;;;;5016619;28;20689;-94
2021/12/19 12:59:04;;;;;;;13.35;8.68;;;7.70;99.90;;;;;;4997815;28;20196;-93
2021/12/19 13:01:42;;;;;;;11.80;8.85;;;7.70;99.90;;;;;;5019121;28;20582;-87
2021/12/19 13:04:42;;;;;;;12.20;9.32;;;7.70;99.90;;;;;;5016451;28;20179;-93
2021/12/19 13:07:14;;;;;;;14.60;10.20;;;7.70;99.90;;;;;;4976312;28;20205;-93
2021/12/19 13:09:43;;;;;;;15.52;11.27;;;7.70;99.90;;;;;;5031642;28;20232;-87
2021/12/19 13:12:12;;;;;;;15.07;10.80;;;7.70;99.90;;;;;;5032587;28;20266;-88
2021/12/19 13:14:42;;;;;;;14.73;10.95;;;7.70;99.90;;;;;;5050141;28;20228;-86
2021/12/19 13:17:13;;;;;;;13.60;10.70;;;7.70;99.90;;;;;;5025810;28;20217;-87
2021/12/19 13:19:48;;;;;;;16.27;11.15;;;7.80;99.90;;;;;;5033662;28;20167;-90
2021/12/19 13:22:27;;;;;;;13.02;9.35;;;7.80;99.90;;;;;;5018482;28;20185;-87
2021/12/19 13:24:57;;;;;;;13.15;11.07;;;7.80;99.90;;;;;;5019481;28;20229;-90
2021/12/19 13:27:29;;;;;;;12.30;8.75;;;7.80;99.90;;;;;;5017646;28;20191;-90
2021/12/19 13:30:15;;;;;;;15.20;9.98;;;7.90;99.90;;;;;;5016296;28;20710;-90
2021/12/19 13:33:10;;;;;;;12.50;9.23;;;7.90;99.90;;;;;;5021737;28;20237;-88
2021/12/19 13:35:48;;;;;;;12.45;9.85;;;7.90;99.90;;;;;;5017599;28;20249;-87
2021/12/19 13:38:16;;;;;;;13.70;9.50;;;7.90;99.90;;;;;;5026513;28;20241;-91
2021/12/19 13:40:48;;;;;;;13.02;9.60;;;7.90;99.90;;;;;;5040324;28;20202;-87
2021/12/19 13:43:18;;;;;;;15.95;9.82;;;7.90;99.90;;;;;;5038310;28;20187;-91
2021/12/19 13:45:52;;;;;;;13.50;10.20;;;7.90;99.90;;;;;;5012714;28;20679;-88
2021/12/19 13:48:24;;;;;;;11.13;8.98;;;8.00;99.90;;;;;;5025145;28;20233;-91
2021/12/19 13:51:12;;;;;;;11.57;9.50;;;8.00;99.90;;;;;;5016741;28;20646;-91
2021/12/19 13:53:47;;;;;;;17.48;14.73;;;8.00;99.90;;;;;;5028841;28;20193;-91